createdAt,value
2019-02-24T00:01:21.181Z,99.90
2019-02-24T00:03:50.460Z,99.90
2019-02-24T00:06:19.643Z,99.90
2019-02-24T00:08:49.099Z,99.90
2019-02-24T00:11:18.069Z,99.90
2019-02-24T00:13:47.088Z,99.90
2019-02-24T00:16:16.045Z,99.90
2019-02-24T00:18:45.057Z,99.90
2019-02-24T00:21:14.037Z,99.90
2019-02-24T00:23:43.092Z,99.90
2019-02-24T00:26:12.045Z,99.90
2019-02-24T00:28:41.029Z,99.90
2019-02-24T00:31:10.059Z,99.90
2019-02-24T00:33:39.233Z,99.90
2019-02-24T00:36:08.227Z,99.90
2019-02-24T00:38:37.375Z,99.90
2019-02-24T00:41:06.497Z,99.90
2019-02-24T00:43:35.666Z,99.90
2019-02-24T00:46:04.665Z,99.90
2019-02-24T00:48:33.740Z,99.90
2019-02-24T00:51:02.757Z,99.70
2019-02-24T00:53:31.687Z,99.40
2019-02-24T00:56:00.617Z,99.30
2019-02-24T00:58:29.585Z,99.10
2019-02-24T01:00:58.603Z,98.80
2019-02-24T01:03:27.577Z,99.10
2019-02-24T01:05:56.521Z,99.00
2019-02-24T01:08:25.431Z,99.10
2019-02-24T01:10:54.441Z,99.00
2019-02-24T01:13:23.375Z,99.10
2019-02-24T01:15:52.335Z,99.10
2019-02-24T01:18:21.241Z,98.90
2019-02-24T01:20:50.213Z,99.00
2019-02-24T01:23:19.253Z,99.20
2019-02-24T01:25:54.741Z,99.20
2019-02-24T01:28:25.528Z,99.30
2019-02-24T01:30:52.749Z,98.60
2019-02-24T01:33:21.666Z,98.20
2019-02-24T01:35:50.663Z,98.30
2019-02-24T01:38:19.696Z,98.50
2019-02-24T01:40:48.647Z,98.60
2019-02-24T01:43:17.570Z,99.00
2019-02-24T01:45:46.568Z,99.30
2019-02-24T01:48:15.555Z,99.40
2019-02-24T01:50:44.603Z,99.70
2019-02-24T01:53:13.548Z,99.90
2019-02-24T01:55:42.557Z,99.90
2019-02-24T01:58:11.547Z,99.90
2019-02-24T02:00:40.862Z,99.90
2019-02-24T02:03:09.821Z,99.90
2019-02-24T02:05:38.781Z,99.90
2019-02-24T02:08:07.714Z,99.90
2019-02-24T02:10:36.764Z,99.90
2019-02-24T02:13:05.717Z,99.90
2019-02-24T02:15:34.703Z,99.90
2019-02-24T02:18:03.687Z,99.90
2019-02-24T02:20:32.689Z,99.90
2019-02-24T02:23:01.672Z,99.90
2019-02-24T02:25:30.625Z,99.90
2019-02-24T02:28:00.139Z,99.90
2019-02-24T02:30:29.345Z,99.90
2019-02-24T02:32:58.274Z,99.90
2019-02-24T02:35:27.252Z,99.90
2019-02-24T02:37:56.393Z,99.90
2019-02-24T02:40:25.435Z,99.90
2019-02-24T02:42:54.762Z,99.90
2019-02-24T02:45:23.782Z,99.90
2019-02-24T02:47:52.855Z,99.90
2019-02-24T02:50:21.837Z,99.90
2019-02-24T02:52:50.831Z,99.90
2019-02-24T02:55:20.844Z,99.90
2019-02-24T02:57:49.831Z,99.90
2019-02-24T03:00:27.571Z,99.90
2019-02-24T03:02:56.637Z,99.90
2019-02-24T03:05:25.813Z,99.90
2019-02-24T03:08:00.208Z,99.90
2019-02-24T03:10:29.253Z,99.90
2019-02-24T03:12:58.315Z,99.90
2019-02-24T03:15:27.319Z,99.90
2019-02-24T03:17:56.363Z,99.90
2019-02-24T03:20:25.357Z,99.90
2019-02-24T03:22:54.296Z,99.90
2019-02-24T03:25:23.326Z,99.90
2019-02-24T03:27:52.572Z,99.90
2019-02-24T03:30:21.699Z,99.90
2019-02-24T03:32:50.857Z,99.90
2019-02-24T03:35:20.099Z,99.90
2019-02-24T03:37:49.275Z,99.90
2019-02-24T03:40:18.295Z,99.90
2019-02-24T03:42:47.230Z,99.90
2019-02-24T03:45:16.162Z,99.90
2019-02-24T03:47:45.153Z,99.90
2019-02-24T03:50:14.184Z,99.90
2019-02-24T03:52:43.209Z,99.90
2019-02-24T03:55:12.174Z,99.90
2019-02-24T03:57:41.137Z,99.90
2019-02-24T04:00:10.147Z,99.90
2019-02-24T04:02:39.167Z,99.90
2019-02-24T04:05:08.131Z,99.90
2019-02-24T04:07:37.105Z,99.90
2019-02-24T04:10:06.612Z,99.90
2019-02-24T04:12:35.567Z,99.90
2019-02-24T04:15:04.981Z,99.90
2019-02-24T04:17:33.968Z,99.90
2019-02-24T04:20:02.930Z,99.90
2019-02-24T04:22:31.896Z,99.90
2019-02-24T04:25:00.966Z,99.90
2019-02-24T04:27:29.965Z,99.90
2019-02-24T04:29:58.999Z,99.90
2019-02-24T04:32:28.050Z,99.90
2019-02-24T04:34:56.991Z,99.90
2019-02-24T04:37:25.965Z,99.90
2019-02-24T04:39:54.903Z,99.90
2019-02-24T04:42:23.894Z,99.90
2019-02-24T04:44:52.921Z,99.90
2019-02-24T04:47:21.915Z,99.90
2019-02-24T04:49:51.150Z,99.90
2019-02-24T04:52:20.140Z,99.90
2019-02-24T04:54:49.113Z,99.90
2019-02-24T04:57:18.154Z,99.90
2019-02-24T04:59:47.287Z,99.90
2019-02-24T05:02:16.381Z,99.90
2019-02-24T05:04:45.285Z,99.90
2019-02-24T05:07:14.402Z,99.90
2019-02-24T05:09:43.403Z,99.90
2019-02-24T05:12:12.404Z,99.90
2019-02-24T05:14:41.385Z,99.90
2019-02-24T05:17:10.404Z,99.90
2019-02-24T05:19:39.310Z,99.90
2019-02-24T05:22:08.308Z,99.90
2019-02-24T05:24:37.198Z,99.90
2019-02-24T05:27:06.168Z,99.90
2019-02-24T05:29:44.816Z,99.90
2019-02-24T05:32:04.060Z,99.90
2019-02-24T05:34:33.073Z,99.90
2019-02-24T05:37:02.013Z,99.90
2019-02-24T05:39:31.001Z,99.90
2019-02-24T05:42:06.866Z,99.90
2019-02-24T05:44:35.866Z,99.90
2019-02-24T05:47:04.833Z,99.90
2019-02-24T05:49:33.771Z,99.90
2019-02-24T05:52:02.737Z,99.90
2019-02-24T05:54:31.664Z,99.90
2019-02-24T05:57:00.683Z,99.90
2019-02-24T05:59:29.665Z,99.90
2019-02-24T06:01:58.587Z,99.90
2019-02-24T06:04:27.569Z,99.90
2019-02-24T06:06:56.568Z,99.90
2019-02-24T06:09:25.551Z,99.90
2019-02-24T06:11:54.811Z,99.90
2019-02-24T06:14:23.803Z,99.90
2019-02-24T06:16:52.881Z,99.90
2019-02-24T06:19:22.082Z,99.90
2019-02-24T06:21:51.149Z,99.90
2019-02-24T06:24:20.113Z,99.90
2019-02-24T06:26:49.548Z,99.90
2019-02-24T06:29:18.507Z,99.90
2019-02-24T06:31:48.659Z,99.90
2019-02-24T06:34:17.759Z,99.90
2019-02-24T06:36:46.974Z,99.90
2019-02-24T06:39:16.000Z,99.90
2019-02-24T06:41:45.007Z,99.90
2019-02-24T06:44:20.249Z,99.90
2019-02-24T06:46:49.375Z,99.90
2019-02-24T06:49:18.593Z,99.90
2019-02-24T06:51:47.668Z,99.90
2019-02-24T06:54:16.699Z,99.90
2019-02-24T06:56:45.845Z,99.90
2019-02-24T06:59:15.315Z,99.90
2019-02-24T07:01:44.348Z,99.90
2019-02-24T07:04:13.545Z,99.90
2019-02-24T07:06:42.843Z,99.90
2019-02-24T07:09:12.497Z,99.90
2019-02-24T07:11:42.758Z,99.90
2019-02-24T07:14:11.848Z,99.90
2019-02-24T07:16:40.859Z,99.90
2019-02-24T07:19:10.006Z,99.90
2019-02-24T07:21:39.634Z,99.90
2019-02-24T07:24:08.633Z,99.90
2019-02-24T07:26:37.759Z,99.90
2019-02-24T07:29:06.949Z,99.90
2019-02-24T07:31:36.730Z,99.90
2019-02-24T07:34:06.007Z,99.90
2019-02-24T07:36:35.677Z,99.90
2019-02-24T07:39:05.531Z,99.90
2019-02-24T07:41:36.228Z,99.90
2019-02-24T07:44:06.614Z,99.90
2019-02-24T07:46:36.144Z,99.90
2019-02-24T07:49:05.174Z,99.90
2019-02-24T07:51:34.276Z,99.90
2019-02-24T07:54:04.457Z,99.90
2019-02-24T07:56:33.847Z,99.90
2019-02-24T07:59:03.645Z,99.90
2019-02-24T08:01:33.362Z,99.90
2019-02-24T08:04:02.419Z,99.90
2019-02-24T08:06:32.311Z,99.90
2019-02-24T08:09:01.396Z,99.90
2019-02-24T08:11:31.102Z,99.90
2019-02-24T08:14:00.384Z,99.90
2019-02-24T08:16:29.481Z,99.90
2019-02-24T08:18:58.767Z,99.90
2019-02-24T08:21:28.001Z,99.90
2019-02-24T08:23:57.617Z,99.90
2019-02-24T08:26:27.143Z,99.90
2019-02-24T08:28:56.176Z,99.90
2019-02-24T08:31:25.299Z,99.90
2019-02-24T08:33:55.665Z,99.90
2019-02-24T08:36:24.968Z,99.90
2019-02-24T08:38:54.307Z,99.90
2019-02-24T08:41:23.476Z,99.90
2019-02-24T08:43:52.701Z,99.90
2019-02-24T08:46:21.921Z,99.90
2019-02-24T08:48:50.967Z,98.80
2019-02-24T08:51:20.055Z,95.20
2019-02-24T08:53:50.065Z,89.50
2019-02-24T08:56:19.187Z,76.80
2019-02-24T08:58:48.604Z,69.80
2019-02-24T09:01:17.782Z,70.20
2019-02-24T09:03:48.057Z,68.10
2019-02-24T12:11:19.116Z,32.40
2019-02-24T12:13:48.093Z,32.50
2019-02-24T12:16:17.146Z,32.30
2019-02-24T12:18:46.330Z,31.40
2019-02-24T12:21:15.428Z,31.20
2019-02-24T12:23:44.510Z,31.10
2019-02-24T12:26:13.798Z,31.20
2019-02-24T12:28:42.903Z,31.20
2019-02-24T12:31:11.935Z,31.30
2019-02-24T12:33:40.961Z,28.70
2019-02-24T12:36:09.986Z,28.00
2019-02-24T12:38:39.121Z,28.30
2019-02-24T12:41:08.093Z,27.90
2019-02-24T12:43:37.104Z,27.80
2019-02-24T12:46:06.074Z,28.60
2019-02-24T12:48:35.076Z,28.30
2019-02-24T12:51:04.132Z,28.30
2019-02-24T12:53:33.208Z,28.30
2019-02-24T12:56:02.584Z,27.20
2019-02-24T12:58:31.834Z,28.10
2019-02-24T13:01:00.848Z,27.20
2019-02-24T13:03:29.896Z,27.50
2019-02-24T13:05:58.940Z,27.90
2019-02-24T13:08:27.908Z,28.30
2019-02-24T13:10:56.895Z,28.10
2019-02-24T13:13:26.045Z,28.00
2019-02-24T13:15:55.061Z,28.50
2019-02-24T13:18:24.094Z,28.80
2019-02-24T13:20:53.031Z,28.60
2019-02-24T13:23:21.983Z,29.70
2019-02-24T13:25:50.899Z,30.20
2019-02-24T13:28:19.969Z,31.00
2019-02-24T13:30:49.058Z,30.70
2019-02-24T13:33:18.148Z,31.30
2019-02-24T13:35:47.304Z,30.70
2019-02-24T13:38:16.372Z,30.50
2019-02-24T13:40:45.414Z,30.90
2019-02-24T13:43:14.478Z,31.10
2019-02-24T13:45:43.764Z,30.60
2019-02-24T13:48:12.782Z,30.80
2019-02-24T13:50:42.036Z,30.60
2019-02-24T13:53:11.171Z,31.30
2019-02-24T13:55:40.326Z,32.30
2019-02-24T13:58:09.728Z,32.70
2019-02-24T14:00:38.775Z,32.40
2019-02-24T14:03:07.806Z,32.10
2019-02-24T14:05:36.963Z,32.30
2019-02-24T14:08:06.039Z,32.50
2019-02-24T14:10:35.014Z,33.00
2019-02-24T14:13:05.353Z,33.40
2019-02-24T14:15:34.587Z,33.00
2019-02-24T14:18:03.720Z,32.40
2019-02-24T14:20:32.696Z,32.20
2019-02-24T14:23:01.677Z,32.40
2019-02-24T14:25:30.846Z,32.20
2019-02-24T14:27:59.909Z,32.40
2019-02-24T14:30:28.879Z,33.30
2019-02-24T14:32:57.824Z,33.80
2019-02-24T14:35:26.828Z,34.00
2019-02-24T14:37:55.789Z,34.40
2019-02-24T14:40:24.754Z,35.40
2019-02-24T14:42:53.800Z,35.90
2019-02-24T14:45:22.865Z,36.20
2019-02-24T14:47:51.919Z,35.80
2019-02-24T14:50:20.943Z,36.00
2019-02-24T14:52:50.036Z,36.80
2019-02-24T14:55:19.037Z,37.30
2019-02-24T14:57:48.070Z,37.50
2019-02-24T15:00:17.171Z,37.60
2019-02-24T15:02:46.388Z,37.20
2019-02-24T15:05:16.741Z,37.50
2019-02-24T15:07:44.297Z,38.00
2019-02-24T15:10:14.467Z,38.10
2019-02-24T15:12:43.575Z,38.60
2019-02-24T15:15:14.740Z,38.20
2019-02-24T15:17:43.751Z,38.40
2019-02-24T15:20:15.982Z,38.30
2019-02-24T15:22:45.016Z,39.40
2019-02-24T15:25:15.259Z,40.00
2019-02-24T15:27:44.504Z,40.40
2019-02-24T15:30:17.319Z,40.80
2019-02-24T15:32:51.605Z,40.90
2019-02-24T15:35:15.306Z,40.60
2019-02-24T15:37:44.601Z,41.10
2019-02-24T15:40:13.766Z,41.00
2019-02-24T15:42:42.891Z,40.30
2019-02-24T15:45:12.197Z,40.60
2019-02-24T15:47:41.257Z,41.40
2019-02-24T15:50:10.570Z,41.70
2019-02-24T15:52:39.916Z,39.80
2019-02-24T15:55:09.121Z,39.70
2019-02-24T15:57:38.195Z,37.50
2019-02-24T16:00:09.375Z,36.10
2019-02-24T16:02:38.696Z,35.30
2019-02-24T16:05:08.439Z,35.60
2019-02-24T16:07:37.516Z,36.40
2019-02-24T16:10:07.978Z,37.10
2019-02-24T16:12:37.239Z,36.90
2019-02-24T16:15:08.649Z,37.20
2019-02-24T16:17:37.874Z,37.30
2019-02-24T16:20:11.000Z,38.00
2019-02-24T16:22:40.145Z,38.40
2019-02-24T16:25:09.394Z,38.50
2019-02-24T16:27:38.397Z,39.10
2019-02-24T16:30:09.314Z,39.40
2019-02-24T16:32:38.467Z,39.10
2019-02-24T16:35:09.833Z,40.30
2019-02-24T16:37:39.157Z,40.10
2019-02-24T16:40:11.279Z,40.10
2019-02-24T16:42:40.302Z,40.20
2019-02-24T16:45:10.794Z,40.50
2019-02-24T16:47:40.048Z,40.50
2019-02-24T16:50:10.927Z,40.80
2019-02-24T16:52:39.973Z,40.90
2019-02-24T16:55:10.239Z,41.40
2019-02-24T16:57:39.640Z,41.70
2019-02-24T17:00:11.515Z,42.00
2019-02-24T17:02:40.567Z,42.50
2019-02-24T17:05:09.607Z,42.80
2019-02-24T17:07:38.598Z,43.40
2019-02-24T17:10:08.300Z,43.70
2019-02-24T17:12:37.493Z,43.90
2019-02-24T17:15:09.096Z,44.30
2019-02-24T17:17:38.295Z,44.80
2019-02-24T17:20:09.941Z,45.10
2019-02-24T17:22:39.204Z,45.50
2019-02-24T17:25:08.344Z,45.60
2019-02-24T17:27:37.447Z,46.70
2019-02-24T17:30:07.614Z,46.40
2019-02-24T17:32:36.725Z,47.10
2019-02-24T17:35:05.874Z,47.00
2019-02-24T17:37:34.922Z,47.20
2019-02-24T17:40:04.459Z,47.30
2019-02-24T17:42:33.675Z,47.70
2019-02-24T17:45:02.695Z,48.20
2019-02-24T17:47:31.738Z,48.70
2019-02-24T17:50:00.799Z,49.30
2019-02-24T17:52:29.883Z,49.70
2019-02-24T17:54:58.997Z,50.10
2019-02-24T17:57:28.591Z,50.70
2019-02-24T17:59:57.595Z,51.20
2019-02-24T18:02:26.882Z,51.50
2019-02-24T18:04:55.989Z,51.40
2019-02-24T18:07:24.964Z,52.00
2019-02-24T18:09:54.289Z,52.00
2019-02-24T18:12:23.332Z,52.00
2019-02-24T18:14:52.834Z,52.20
2019-02-24T18:17:21.896Z,52.50
2019-02-24T18:19:51.095Z,53.30
2019-02-24T18:22:20.264Z,52.90
2019-02-24T18:24:49.459Z,53.40
2019-02-24T18:27:18.586Z,53.80
2019-02-24T18:29:47.585Z,53.80
2019-02-24T18:32:16.824Z,54.00
2019-02-24T18:34:45.835Z,54.50
2019-02-24T18:37:14.981Z,55.60
2019-02-24T18:39:44.010Z,55.30
2019-02-24T18:42:13.102Z,55.60
2019-02-24T18:44:42.478Z,55.90
2019-02-24T18:47:11.681Z,56.90
2019-02-24T18:49:40.703Z,56.20
2019-02-24T18:52:09.866Z,56.20
2019-02-24T18:54:39.116Z,56.50
2019-02-24T18:57:08.386Z,56.40
2019-02-24T18:59:37.465Z,56.60
2019-02-24T19:02:06.434Z,57.40
2019-02-24T19:04:35.765Z,57.90
2019-02-24T19:07:10.218Z,58.70
2019-02-24T19:09:39.316Z,58.10
2019-02-24T19:12:08.475Z,58.30
2019-02-24T19:14:37.479Z,58.50
2019-02-24T19:17:06.681Z,58.70
2019-02-24T19:19:36.788Z,58.10
2019-02-24T19:22:07.257Z,57.50
2019-02-24T19:24:34.946Z,58.20
2019-02-24T19:27:04.024Z,58.80
2019-02-24T19:29:33.098Z,58.80
2019-02-24T19:32:02.108Z,57.70
2019-02-24T19:34:31.128Z,57.30
2019-02-24T19:37:00.190Z,56.50
2019-02-24T19:39:29.932Z,57.30
2019-02-24T19:41:59.104Z,57.00
2019-02-24T19:44:28.174Z,57.80
2019-02-24T19:46:57.123Z,57.70
2019-02-24T19:49:32.782Z,56.40
2019-02-24T19:52:01.802Z,57.80
2019-02-24T19:54:30.802Z,57.60
2019-02-24T19:56:59.939Z,57.30
2019-02-24T19:59:28.915Z,57.50
2019-02-24T20:01:57.862Z,57.70
2019-02-24T20:04:26.839Z,57.60
2019-02-24T20:06:55.851Z,58.60
2019-02-24T20:09:24.913Z,58.70
2019-02-24T20:11:54.501Z,58.80
2019-02-24T20:14:23.620Z,58.60
2019-02-24T20:16:52.617Z,58.70
2019-02-24T20:19:21.659Z,58.80
2019-02-24T20:21:50.702Z,58.70
2019-02-24T20:24:19.768Z,58.00
2019-02-24T20:26:48.784Z,58.60
2019-02-24T20:29:17.788Z,58.90
2019-02-24T20:31:47.024Z,59.60
2019-02-24T20:34:25.022Z,60.00
2019-02-24T20:36:45.655Z,60.40
2019-02-24T20:39:17.128Z,60.80
2019-02-24T20:41:47.300Z,61.10
2019-02-24T20:44:16.464Z,61.60
2019-02-24T20:46:46.016Z,60.80
2019-02-24T20:49:15.373Z,61.20
2019-02-24T20:51:45.166Z,61.90
2019-02-24T20:54:14.274Z,62.30
2019-02-24T20:56:43.357Z,61.70
2019-02-24T20:59:12.482Z,62.50
2019-02-24T21:01:41.642Z,62.80
2019-02-24T21:04:11.366Z,63.30
2019-02-24T21:06:41.447Z,63.00
2019-02-24T21:09:14.983Z,63.00
2019-02-24T21:11:46.293Z,63.80
2019-02-24T21:14:15.846Z,65.30
2019-02-24T21:16:46.775Z,64.50
2019-02-24T21:19:17.180Z,66.00
2019-02-24T21:21:48.084Z,65.50
2019-02-24T21:24:18.365Z,65.90
2019-02-24T21:26:48.874Z,65.90
2019-02-24T21:29:20.389Z,66.40
2019-02-24T21:31:52.016Z,66.50
2019-02-24T21:34:23.459Z,67.40
2019-02-24T21:36:52.558Z,67.60
2019-02-24T21:39:21.593Z,68.80
2019-02-24T21:41:51.306Z,69.30
2019-02-24T21:44:20.502Z,68.50
2019-02-24T21:46:49.702Z,67.70
2019-02-24T21:49:18.826Z,67.90
2019-02-24T21:51:47.859Z,68.30
2019-02-24T21:54:16.868Z,68.60
2019-02-24T21:56:45.896Z,69.90
2019-02-24T21:59:15.312Z,72.10
2019-02-24T22:01:45.047Z,72.90
2019-02-24T22:04:14.164Z,74.00
2019-02-24T22:06:43.252Z,74.90
2019-02-24T22:09:12.537Z,74.30
2019-02-24T22:11:41.563Z,73.60
2019-02-24T22:14:17.424Z,73.40
2019-02-24T22:16:46.400Z,74.40
2019-02-24T22:19:16.212Z,74.20
2019-02-24T22:21:48.301Z,74.50
2019-02-24T22:24:17.362Z,74.80
2019-02-24T22:26:46.502Z,75.90
2019-02-24T22:29:15.463Z,76.20
2019-02-24T22:31:44.383Z,76.60
2019-02-24T22:34:13.351Z,77.70
2019-02-24T22:36:42.313Z,77.00
2019-02-24T22:39:11.352Z,77.20
2019-02-24T22:41:40.404Z,78.30
2019-02-24T22:44:09.338Z,79.50
2019-02-24T22:46:38.273Z,79.90
2019-02-24T22:49:07.267Z,81.00
2019-02-24T22:51:36.294Z,81.00
2019-02-24T22:54:05.486Z,81.80
2019-02-24T22:56:34.471Z,81.30
2019-02-24T22:59:03.516Z,81.20
2019-02-24T23:01:36.365Z,79.40
2019-02-24T23:04:05.445Z,78.30
2019-02-24T23:06:34.457Z,77.80
2019-02-24T23:09:03.690Z,78.60
2019-02-24T23:11:32.604Z,81.70
2019-02-24T23:14:01.710Z,78.20
2019-02-24T23:16:30.685Z,77.60
2019-02-24T23:19:02.366Z,79.70
2019-02-24T23:21:31.368Z,80.10
2019-02-24T23:24:00.288Z,81.70
2019-02-24T23:26:29.234Z,82.20
2019-02-24T23:28:58.410Z,82.10
2019-02-24T23:31:27.319Z,82.60
2019-02-24T23:33:56.232Z,82.80
2019-02-24T23:36:25.545Z,83.70
2019-02-24T23:38:54.812Z,84.70
2019-02-24T23:41:23.846Z,84.90
2019-02-24T23:43:52.908Z,85.60
2019-02-24T23:46:21.847Z,86.60
2019-02-24T23:48:50.836Z,88.30
2019-02-24T23:51:19.848Z,88.90
2019-02-24T23:53:49.007Z,90.40
2019-02-24T23:56:17.951Z,90.20
2019-02-24T23:58:46.966Z,90.00
